createdAt,value
2022-12-24T00:01:37.856Z,99411.66
2022-12-24T00:04:07.162Z,99405.25
2022-12-24T00:06:36.248Z,99421.25
2022-12-24T00:09:06.389Z,99418.03
2022-12-24T00:11:35.189Z,99420.47
2022-12-24T00:14:06.706Z,99405.03
2022-12-24T00:16:35.195Z,99412.50
2022-12-24T00:19:03.589Z,99406.13
2022-12-24T00:21:32.391Z,99410.63
2022-12-24T00:24:03.993Z,99415.94
2022-12-24T00:26:34.101Z,99416.75
2022-12-24T00:29:05.975Z,99418.84
2022-12-24T00:31:42.126Z,99418.84
2022-12-24T00:34:11.672Z,99427.88
2022-12-24T00:36:40.087Z,99423.84
2022-12-24T00:39:08.637Z,99447.25
2022-12-24T00:41:38.681Z,99445.09
2022-12-24T00:44:12.084Z,99450.41
2022-12-24T00:46:43.872Z,99453.06
2022-12-24T00:49:14.134Z,99455.97
2022-12-24T00:52:52.537Z,99452.72
2022-12-24T00:55:21.965Z,99458.88
2022-12-24T00:57:51.711Z,99451.72
2022-12-24T01:00:21.372Z,99451.97
2022-12-24T01:02:49.891Z,99455.69
2022-12-24T01:05:20.834Z,99466.28
2022-12-24T01:07:49.884Z,99468.91
2022-12-24T01:10:21.167Z,99465.44
2022-12-24T01:12:51.544Z,99480.25
2022-12-24T01:15:20.272Z,99485.34
2022-12-24T01:17:48.714Z,99482.13
2022-12-24T01:20:19.209Z,99494.03
2022-12-24T01:22:48.794Z,99502.00
2022-12-24T01:25:17.358Z,99510.47
2022-12-24T01:27:45.838Z,99507.00
2022-12-24T01:30:16.089Z,99519.72
2022-12-24T01:32:44.516Z,99523.44
2022-12-24T01:35:13.301Z,99518.94
2022-12-24T01:37:43.273Z,99535.66
2022-12-24T01:40:31.071Z,99531.91
2022-12-24T01:43:17.185Z,99538.75
2022-12-24T01:45:50.436Z,99530.53
2022-12-24T01:48:26.487Z,99544.59
2022-12-24T01:51:14.858Z,99548.81
2022-12-24T01:53:46.636Z,99540.59
2022-12-24T01:56:15.844Z,99550.91
2022-12-24T01:58:50.556Z,99553.81
2022-12-24T02:01:21.015Z,99566.28
2022-12-24T02:03:49.751Z,99566.81
2022-12-24T02:06:20.957Z,99557.25
2022-12-24T02:08:49.667Z,99563.38
2022-12-24T02:11:20.845Z,99573.19
2022-12-24T02:13:59.580Z,99591.22
2022-12-24T02:16:41.362Z,99593.31
2022-12-24T02:19:34.525Z,99582.38
2022-12-24T02:22:06.006Z,99580.78
2022-12-24T02:25:13.822Z,99586.00
2022-12-24T02:27:57.390Z,99583.91
2022-12-24T02:30:32.738Z,99582.56
2022-12-24T02:33:19.155Z,99593.16
2022-12-24T02:35:53.608Z,99581.75
2022-12-24T02:38:28.846Z,99586.56
2022-12-24T02:41:06.443Z,99571.41
2022-12-24T02:43:39.465Z,99574.06
2022-12-24T02:46:15.674Z,99574.28
2022-12-24T02:48:47.629Z,99566.91
2022-12-24T02:51:16.954Z,99568.75
2022-12-24T02:53:45.460Z,99570.84
2022-12-24T02:56:32.694Z,99568.44
2022-12-24T02:59:27.045Z,99564.16
2022-12-24T03:02:03.968Z,99583.56
2022-12-24T03:04:41.833Z,99576.41
2022-12-24T03:07:21.338Z,99593.34
2022-12-24T03:10:04.811Z,99581.13
2022-12-24T03:12:39.148Z,99592.00
2022-12-24T03:15:10.947Z,99606.28
2022-12-24T03:17:43.748Z,99610.00
2022-12-24T03:20:14.619Z,99613.72
2022-12-24T03:22:43.176Z,99609.47
2022-12-24T03:25:11.908Z,99614.50
2022-12-24T03:27:40.873Z,99607.34
2022-12-24T03:30:13.626Z,99598.34
2022-12-24T03:32:44.008Z,99614.50
2022-12-24T03:35:12.754Z,99608.94
2022-12-24T03:37:41.323Z,99616.69
2022-12-24T03:40:11.241Z,99624.38
2022-12-24T03:42:39.916Z,99622.78
2022-12-24T03:45:09.831Z,99615.88
2022-12-24T03:47:38.302Z,99624.38
2022-12-24T03:50:09.952Z,99613.75
2022-12-24T03:52:38.688Z,99628.66
2022-12-24T03:55:07.679Z,99611.69
2022-12-24T03:57:36.537Z,99596.56
2022-12-24T04:00:06.240Z,99610.88
2022-12-24T04:02:40.373Z,99615.94
2022-12-24T04:05:16.857Z,99623.91
2022-12-24T04:07:45.736Z,99625.50
2022-12-24T04:10:14.920Z,99625.50
2022-12-24T04:12:43.798Z,99629.50
2022-12-24T04:15:12.753Z,99637.00
2022-12-24T04:17:41.599Z,99628.22
2022-12-24T04:20:13.821Z,99627.66
2022-12-24T04:22:42.355Z,99633.53
2022-12-24T04:25:11.573Z,99631.94
2022-12-24T04:27:40.209Z,99637.47
2022-12-24T04:30:10.520Z,99640.38
2022-12-24T04:32:39.127Z,99645.91
2022-12-24T04:35:08.603Z,99638.44
2022-12-24T04:37:38.604Z,99640.28
2022-12-24T04:40:09.087Z,99651.69
2022-12-24T04:42:37.655Z,99644.00
2022-12-24T04:45:07.067Z,99636.31
2022-12-24T04:47:35.738Z,99637.41
2022-12-24T04:50:04.586Z,99655.19
2022-12-24T04:52:33.088Z,99646.72
2022-12-24T04:55:02.895Z,99645.13
2022-12-24T04:57:33.829Z,99659.75
2022-12-24T05:00:02.324Z,99660.28
2022-12-24T05:02:30.917Z,99661.66
2022-12-24T05:04:59.476Z,99653.16
2022-12-24T05:07:27.858Z,99658.78
2022-12-24T05:09:56.442Z,99657.72
2022-12-24T05:12:26.574Z,99663.03
2022-12-24T05:14:54.961Z,99665.44
2022-12-24T05:17:24.176Z,99657.72
2022-12-24T05:19:52.843Z,99657.94
2022-12-24T05:22:38.909Z,99665.13
2022-12-24T05:25:25.210Z,99673.06
2022-12-24T05:27:55.477Z,99668.25
2022-12-24T05:30:24.029Z,99664.81
2022-12-24T05:32:52.505Z,99669.09
2022-12-24T05:35:20.967Z,99678.63
2022-12-24T05:37:49.589Z,99663.78
2022-12-24T05:40:18.364Z,99660.06
2022-12-24T05:42:46.690Z,99672.28
2022-12-24T05:45:16.466Z,99679.44
2022-12-24T05:47:44.803Z,99689.25
2022-12-24T05:50:13.578Z,99684.16
2022-12-24T05:52:41.916Z,99678.06
2022-12-24T05:55:11.210Z,99684.16
2022-12-24T05:57:41.473Z,99691.91
2022-12-24T06:00:11.569Z,99689.25
2022-12-24T06:02:44.286Z,99681.78
2022-12-24T06:05:12.707Z,99680.97
2022-12-24T06:07:41.152Z,99677.53
2022-12-24T06:10:10.851Z,99696.09
2022-12-24T06:12:39.193Z,99696.56
2022-12-24T06:15:09.400Z,99700.28
2022-12-24T06:17:37.918Z,99694.97
2022-12-24T06:20:09.585Z,99697.06
2022-12-24T06:22:37.902Z,99699.13
2022-12-24T06:25:07.282Z,99700.75
2022-12-24T06:27:35.750Z,99710.81
2022-12-24T06:30:04.094Z,99709.75
2022-12-24T06:32:32.467Z,99714.03
2022-12-24T06:35:00.790Z,99715.88
2022-12-24T06:37:30.973Z,99718.75
2022-12-24T06:39:59.285Z,99722.00
2022-12-24T06:42:27.642Z,99724.63
2022-12-24T06:44:55.949Z,99719.06
2022-12-24T06:47:24.271Z,99721.50
2022-12-24T06:49:52.604Z,99729.47
2022-12-24T06:52:20.902Z,99738.22
2022-12-24T06:54:50.625Z,99737.97
2022-12-24T06:57:18.931Z,99732.66
2022-12-24T06:59:47.243Z,99732.91
2022-12-24T07:02:15.795Z,99741.91
2022-12-24T07:04:44.215Z,99735.00
2022-12-24T07:07:12.477Z,99751.72
2022-12-24T07:09:40.856Z,99759.94
2022-12-24T07:12:10.655Z,99763.38
2022-12-24T07:14:39.012Z,99756.22
2022-12-24T07:17:07.485Z,99757.81
2022-12-24T07:19:35.949Z,99757.00
2022-12-24T07:22:04.253Z,99763.97
2022-12-24T07:24:32.587Z,99761.03
2022-12-24T07:27:00.918Z,99764.75
2022-12-24T07:29:30.652Z,99767.16
2022-12-24T07:31:59.079Z,99770.84
2022-12-24T07:34:27.554Z,99776.72
2022-12-24T07:36:55.862Z,99773.25
2022-12-24T07:39:24.289Z,99774.31
2022-12-24T07:41:52.667Z,99780.66
2022-12-24T07:44:21.251Z,99783.88
2022-12-24T07:46:51.067Z,99783.06
2022-12-24T07:49:19.484Z,99789.97
2022-12-24T07:51:47.812Z,99787.31
2022-12-24T07:54:16.190Z,99789.19
2022-12-24T07:56:44.520Z,99787.56
2022-12-24T07:59:14.130Z,99799.00
2022-12-24T08:01:42.718Z,99793.69
2022-12-24T08:04:12.912Z,99799.00
2022-12-24T08:06:41.492Z,99800.59
2022-12-24T08:09:09.846Z,99794.72
2022-12-24T08:11:38.154Z,99795.53
2022-12-24T08:14:06.443Z,99800.59
2022-12-24T08:16:34.825Z,99796.59
2022-12-24T08:19:03.169Z,99801.09
2022-12-24T08:21:32.822Z,99801.56
2022-12-24T08:24:01.140Z,99803.16
2022-12-24T08:26:29.500Z,99809.53
2022-12-24T08:28:57.905Z,99818.50
2022-12-24T08:31:26.323Z,99815.84
2022-12-24T08:33:54.725Z,99817.50
2022-12-24T08:36:23.347Z,99832.81
2022-12-24T08:38:53.094Z,99824.31
2022-12-24T08:41:21.432Z,99813.72
2022-12-24T08:43:49.781Z,99815.06
2022-12-24T08:46:18.153Z,99818.50
2022-12-24T08:48:46.486Z,99822.00
2022-12-24T08:51:15.039Z,99832.59
2022-12-24T08:53:43.438Z,99830.19
2022-12-24T08:56:14.039Z,99833.41
2022-12-24T08:58:42.669Z,99825.19
2022-12-24T09:01:17.703Z,99831.31
2022-12-24T09:03:46.194Z,99831.88
2022-12-24T09:06:14.980Z,99830.81
2022-12-24T09:08:43.659Z,99839.38
2022-12-24T09:11:17.486Z,99846.84
2022-12-24T09:13:46.122Z,99854.31
2022-12-24T09:16:14.845Z,99857.53
2022-12-24T09:18:44.104Z,99861.56
2022-12-24T09:21:16.496Z,99866.41
2022-12-24T09:23:47.084Z,99872.50
2022-12-24T09:26:20.952Z,99872.00
2022-12-24T09:28:49.588Z,99865.66
2022-12-24T09:31:18.465Z,99868.66
2022-12-24T09:33:49.275Z,99879.81
2022-12-24T09:36:18.704Z,99884.91
2022-12-24T09:38:48.055Z,99883.38
2022-12-24T09:41:34.353Z,99898.25
2022-12-24T09:44:19.718Z,99901.47
2022-12-24T09:46:51.402Z,99901.47
2022-12-24T09:49:24.125Z,99906.31
2022-12-24T09:52:00.177Z,99906.06
2022-12-24T09:54:33.378Z,99916.41
2022-12-24T09:57:09.714Z,99910.63
2022-12-24T09:59:44.734Z,99922.06
2022-12-24T10:02:16.585Z,99923.91
2022-12-24T10:04:47.101Z,99924.72
2022-12-24T10:07:32.945Z,99915.16
2022-12-24T10:10:14.626Z,99926.09
2022-12-24T10:12:52.520Z,99935.66
2022-12-24T10:15:28.125Z,99930.34
2022-12-24T10:18:13.816Z,99930.66
2022-12-24T10:20:49.324Z,99932.03
2022-12-24T10:23:25.823Z,99930.44
2022-12-24T10:26:08.203Z,99932.03
2022-12-24T10:28:45.618Z,99945.91
2022-12-24T10:31:15.055Z,99934.44
2022-12-24T10:33:46.467Z,99931.00
2022-12-24T10:36:19.350Z,99927.31
2022-12-24T10:38:48.014Z,99934.22
2022-12-24T10:41:17.509Z,99930.78
2022-12-24T10:43:48.770Z,99930.50
2022-12-24T10:46:22.497Z,99926.56
2022-12-24T10:48:56.437Z,99916.50
2022-12-24T10:51:38.914Z,99921.59
2022-12-24T10:54:14.190Z,99917.66
2022-12-24T10:56:45.137Z,99924.88
2022-12-24T10:59:29.816Z,99929.16
2022-12-24T11:02:00.853Z,99935.03
2022-12-24T11:04:32.520Z,99938.00
2022-12-24T11:07:03.496Z,99928.72
2022-12-24T11:09:34.908Z,99918.69
2022-12-24T11:12:09.478Z,99924.78
2022-12-24T11:14:40.629Z,99922.94
2022-12-24T11:17:11.745Z,99915.28
2022-12-24T11:19:40.583Z,99931.03
2022-12-24T11:22:19.800Z,99921.22
2022-12-24T11:24:59.752Z,99923.38
2022-12-24T11:27:40.283Z,99923.72
2022-12-24T11:30:30.213Z,99934.88
2022-12-24T11:33:20.703Z,99929.34
2022-12-24T11:36:01.583Z,99924.34
2022-12-24T11:38:32.714Z,99927.53
2022-12-24T11:41:05.650Z,99925.69
2022-12-24T11:43:47.600Z,99916.44
2022-12-24T11:46:36.991Z,99928.66
2022-12-24T11:49:19.139Z,99919.09
2022-12-24T11:52:21.112Z,99925.47
2022-12-24T11:55:29.343Z,99927.53
2022-12-24T11:58:03.773Z,99927.31
2022-12-24T12:00:32.370Z,99928.13
2022-12-24T12:03:04.450Z,99930.78
2022-12-24T12:05:36.542Z,99923.81
2022-12-24T12:08:12.303Z,99916.69
2022-12-24T12:10:42.727Z,99919.88
2022-12-24T12:13:16.421Z,99920.69
2022-12-24T12:15:50.937Z,99923.13
2022-12-24T12:18:26.163Z,99920.19
2022-12-24T12:21:02.036Z,99921.25
2022-12-24T12:23:34.269Z,99922.84
2022-12-24T12:26:08.885Z,99922.84
2022-12-24T12:28:42.782Z,99925.78
2022-12-24T12:31:20.571Z,99928.97
2022-12-24T12:33:54.912Z,99930.03
2022-12-24T12:36:28.346Z,99936.63
2022-12-24T12:38:56.735Z,99929.44
2022-12-24T12:41:47.068Z,99935.03
2022-12-24T12:44:45.413Z,99936.56
2022-12-24T12:47:41.508Z,99936.25
2022-12-24T12:50:20.282Z,99928.50
2022-12-24T12:53:20.711Z,99939.44
2022-12-24T12:55:58.385Z,99943.75
2022-12-24T12:58:31.636Z,99947.19
2022-12-24T13:01:10.039Z,99943.47
2022-12-24T13:04:17.266Z,99932.06
2022-12-24T13:07:43.952Z,99931.72
2022-12-24T13:10:54.155Z,99932.78
2022-12-24T13:14:08.359Z,99939.13
2022-12-24T13:17:09.092Z,99945.28
2022-12-24T13:20:17.194Z,99946.06
2022-12-24T13:22:57.488Z,99953.56
2022-12-24T13:25:36.451Z,99958.63
2022-12-24T13:28:19.773Z,99952.50
2022-12-24T13:30:50.100Z,99946.13
2022-12-24T13:33:52.636Z,99936.56
2022-12-24T13:36:22.315Z,99954.44
2022-12-24T13:38:53.675Z,99956.03
2022-12-24T13:41:52.957Z,99955.72
2022-12-24T13:44:40.282Z,99964.25
2022-12-24T13:47:31.609Z,99957.09
2022-12-24T13:50:25.126Z,99958.16
2022-12-24T13:52:54.722Z,99966.66
2022-12-24T13:55:25.050Z,99962.72
2022-12-24T13:58:00.756Z,99966.97
2022-12-24T14:00:39.875Z,99953.16
2022-12-24T14:03:28.343Z,99962.19
2022-12-24T14:06:01.417Z,99960.06
2022-12-24T14:08:42.269Z,99966.91
2022-12-24T14:11:15.120Z,99966.13
2022-12-24T14:14:28.237Z,99971.91
2022-12-24T14:17:00.376Z,99970.00
2022-12-24T14:19:37.249Z,99968.69
2022-12-24T14:22:25.944Z,99967.03
2022-12-24T14:24:58.863Z,99983.50
2022-12-24T14:27:38.959Z,99967.03
2022-12-24T14:30:14.746Z,99974.66
2022-12-24T14:32:43.477Z,99986.91
2022-12-24T14:35:18.995Z,99974.09
2022-12-24T14:37:51.708Z,99973.28
2022-12-24T14:40:28.086Z,99978.88
2022-12-24T14:43:06.186Z,99981.53
2022-12-24T14:45:41.661Z,99971.88
2022-12-24T14:48:18.584Z,99980.91
2022-12-24T14:51:01.221Z,99983.00
2022-12-24T14:53:43.143Z,99971.81
2022-12-24T14:56:16.348Z,99986.69
2022-12-24T14:58:46.728Z,99990.97
2022-12-24T15:01:25.779Z,99997.56
2022-12-24T15:04:07.021Z,100000.47
2022-12-24T15:06:38.206Z,99985.56
2022-12-24T15:09:07.578Z,99985.81
2022-12-24T15:11:36.990Z,99989.28
2022-12-24T15:14:07.380Z,100002.00
2022-12-24T15:16:37.982Z,99996.69
2022-12-24T15:19:09.342Z,100000.38
2022-12-24T15:21:41.671Z,99996.84
2022-12-24T15:24:26.784Z,100013.59
2022-12-24T15:26:56.608Z,100009.78
2022-12-24T15:29:29.152Z,100011.41
2022-12-24T15:32:00.307Z,100019.59
2022-12-24T15:34:31.198Z,100025.16
2022-12-24T15:37:08.143Z,100029.09
2022-12-24T15:39:36.803Z,100031.22
2022-12-24T15:42:14.696Z,100045.28
2022-12-24T15:44:50.895Z,100030.88
2022-12-24T15:47:22.432Z,100039.88
2022-12-24T15:49:53.297Z,100048.31
2022-12-24T15:52:25.442Z,100045.44
2022-12-24T15:54:57.984Z,100038.50
2022-12-24T15:57:32.033Z,100038.72
2022-12-24T16:00:03.679Z,100049.59
2022-12-24T16:02:39.834Z,100049.81
2022-12-24T16:05:37.318Z,100042.38
2022-12-24T16:08:25.380Z,100047.88
2022-12-24T16:11:09.060Z,100040.19
2022-12-24T16:13:41.638Z,100046.50
2022-12-24T16:16:15.381Z,100050.22
2022-12-24T16:18:53.658Z,100052.31
2022-12-24T16:21:26.046Z,100053.91
2022-12-24T16:23:57.903Z,100054.41
2022-12-24T16:26:26.319Z,100062.09
2022-12-24T16:28:56.775Z,100045.38
2022-12-24T16:31:34.458Z,100045.63
2022-12-24T16:34:04.386Z,100043.19
2022-12-24T16:36:34.198Z,100046.91
2022-12-24T16:39:20.222Z,100052.44
2022-12-24T16:42:06.265Z,100044.72
2022-12-24T16:44:34.692Z,100039.88
2022-12-24T16:47:07.301Z,100035.63
2022-12-24T16:49:39.437Z,100038.28
2022-12-24T16:52:09.516Z,100037.47
2022-12-24T16:54:37.852Z,100047.28
2022-12-24T16:57:07.068Z,100050.75
2022-12-24T16:59:35.426Z,100048.34
2022-12-24T17:02:10.842Z,100048.78
2022-12-24T17:04:42.908Z,100050.66
2022-12-24T17:07:12.442Z,100070.84
2022-12-24T17:09:41.008Z,100072.91
2022-12-24T17:12:09.971Z,100063.59
2022-12-24T17:14:40.090Z,100068.91
2022-12-24T17:17:18.544Z,100067.25
2022-12-24T17:19:47.282Z,100063.00
2022-12-24T17:22:16.160Z,100090.59
2022-12-24T17:24:45.032Z,100076.53
2022-12-24T17:27:13.419Z,100076.53
2022-12-24T17:29:41.927Z,100078.59
2022-12-24T17:32:11.960Z,100079.63
2022-12-24T17:34:40.564Z,100080.69
2022-12-24T17:37:08.963Z,100086.22
2022-12-24T17:39:37.363Z,100082.75
2022-12-24T17:42:05.832Z,100088.06
2022-12-24T17:44:34.307Z,100092.56
2022-12-24T17:47:05.220Z,100086.66
2022-12-24T17:49:35.069Z,100091.19
2022-12-24T17:52:04.735Z,100090.38
2022-12-24T17:54:33.172Z,100099.38
2022-12-24T17:57:01.865Z,100099.38
2022-12-24T17:59:30.195Z,100097.75
2022-12-24T18:01:58.613Z,100101.25
2022-12-24T18:04:26.974Z,100094.28
2022-12-24T18:07:02.081Z,100089.00
2022-12-24T18:09:30.696Z,100080.47
2022-12-24T18:11:58.975Z,100082.06
2022-12-24T18:14:27.272Z,100083.69
2022-12-24T18:16:55.575Z,100081.28
2022-12-24T18:19:23.968Z,100079.44
2022-12-24T18:21:52.289Z,100078.63
2022-12-24T18:24:22.177Z,100083.13
2022-12-24T18:26:50.493Z,100071.72
2022-12-24T18:29:19.094Z,100085.78
2022-12-24T18:31:47.539Z,100092.09
2022-12-24T18:34:16.053Z,100079.09
2022-12-24T18:36:48.286Z,100080.94
2022-12-24T18:39:20.925Z,100076.69
2022-12-24T18:41:49.585Z,100081.97
2022-12-24T18:44:24.227Z,100070.53
2022-12-24T18:46:53.669Z,100076.09
2022-12-24T18:49:22.052Z,100078.75
2022-12-24T18:51:50.372Z,100086.94
2022-12-24T18:54:18.748Z,100079.00
2022-12-24T18:56:51.783Z,100080.81
2022-12-24T18:59:20.218Z,100081.06
2022-12-24T19:01:48.754Z,100076.00
2022-12-24T19:04:17.249Z,100081.31
2022-12-24T19:06:52.696Z,100089.47
2022-12-24T19:09:21.601Z,100101.13
2022-12-24T19:11:51.306Z,100103.19
2022-12-24T19:14:20.912Z,100100.53
2022-12-24T19:16:49.321Z,100115.66
2022-12-24T19:19:18.833Z,100107.94
2022-12-24T19:21:47.180Z,100102.03
2022-12-24T19:24:15.469Z,100105.47
2022-12-24T19:26:43.783Z,100112.63
2022-12-24T19:29:13.519Z,100113.69
2022-12-24T19:31:44.337Z,100121.88
2022-12-24T19:34:12.712Z,100128.00
2022-12-24T19:36:41.302Z,100130.84
2022-12-24T19:39:09.607Z,100136.75
2022-12-24T19:41:37.932Z,100136.16
2022-12-24T19:44:06.646Z,100129.25
2022-12-24T19:46:38.100Z,100126.84
2022-12-24T19:49:09.188Z,100129.50
2022-12-24T19:51:37.523Z,100136.63
2022-12-24T19:54:13.389Z,100131.56
2022-12-24T19:56:45.219Z,100135.25
2022-12-24T19:59:13.560Z,100129.16
2022-12-24T20:01:44.300Z,100134.66
2022-12-24T20:04:12.879Z,100141.56
2022-12-24T20:06:41.267Z,100143.44
2022-12-24T20:09:09.790Z,100147.13
2022-12-24T20:11:38.395Z,100155.88
2022-12-24T20:14:07.959Z,100154.50
2022-12-24T20:16:36.678Z,100163.28
2022-12-24T20:19:07.854Z,100168.59
2022-12-24T20:21:38.009Z,100166.94
2022-12-24T20:24:07.427Z,100175.16
2022-12-24T20:26:36.391Z,100177.19
2022-12-24T20:29:06.811Z,100179.06
2022-12-24T20:31:36.247Z,100178.25
2022-12-24T20:34:07.591Z,100169.50
2022-12-24T20:36:39.585Z,100160.94
2022-12-24T20:39:08.525Z,100154.63
2022-12-24T20:41:37.695Z,100154.84
2022-12-24T20:44:06.321Z,100150.78
2022-12-24T20:46:35.509Z,100152.44
2022-12-24T20:49:06.260Z,100149.78
2022-12-24T20:51:34.791Z,100155.53
2022-12-24T20:54:03.281Z,100159.78
2022-12-24T20:56:32.019Z,100150.22
2022-12-24T20:59:01.543Z,100153.13
2022-12-24T21:01:31.036Z,100150.47
2022-12-24T21:04:04.578Z,100156.56
2022-12-24T21:06:35.937Z,100148.03
2022-12-24T21:09:05.808Z,100147.22
2022-12-24T21:11:51.774Z,100143.78
2022-12-24T21:14:22.812Z,100157.50
2022-12-24T21:16:52.016Z,100159.34
2022-12-24T21:19:23.555Z,100154.03
2022-12-24T21:21:53.383Z,100161.19
2022-12-24T21:24:21.714Z,100155.88
2022-12-24T21:26:50.151Z,100152.41
2022-12-24T21:29:18.515Z,100148.94
2022-12-24T21:31:48.333Z,100145.47
2022-12-24T21:34:16.751Z,100146.28
2022-12-24T21:36:46.246Z,100144.47
2022-12-24T21:39:16.026Z,100140.44
2022-12-24T21:41:44.328Z,100136.16
2022-12-24T21:44:12.737Z,100128.78
2022-12-24T21:46:41.142Z,100131.88
2022-12-24T21:49:28.880Z,100131.88
2022-12-24T21:52:00.215Z,100132.94
2022-12-24T21:54:31.264Z,100136.63
2022-12-24T21:57:19.568Z,100129.47
2022-12-24T21:59:51.704Z,100138.47
2022-12-24T22:02:27.587Z,100145.59
2022-12-24T22:04:56.171Z,100127.03
2022-12-24T22:07:44.170Z,100119.31
2022-12-24T22:10:37.837Z,100111.63
2022-12-24T22:13:08.763Z,100112.41
2022-12-24T22:15:43.825Z,100107.31
2022-12-24T22:18:12.245Z,100103.88
2022-12-24T22:20:41.051Z,100109.97
2022-12-24T22:23:09.682Z,100116.56
2022-12-24T22:25:39.690Z,100122.66
2022-12-24T22:28:08.479Z,100118.97
2022-12-24T22:30:39.501Z,100120.47
2022-12-24T22:33:11.856Z,100130.03
2022-12-24T22:35:40.457Z,100133.72
2022-12-24T22:38:10.788Z,100133.94
2022-12-24T22:40:41.845Z,100136.81
2022-12-24T22:43:10.269Z,100136.22
2022-12-24T22:45:40.506Z,100139.91
2022-12-24T22:48:08.886Z,100141.78
2022-12-24T22:50:37.142Z,100142.00
2022-12-24T22:53:05.435Z,100142.00
2022-12-24T22:55:33.744Z,100133.47
2022-12-24T22:58:04.320Z,100136.13
2022-12-24T23:00:43.130Z,100132.44
2022-12-24T23:03:13.413Z,100150.63
2022-12-24T23:05:42.049Z,100142.66
2022-12-24T23:08:11.727Z,100137.38
2022-12-24T23:10:40.823Z,100122.50
2022-12-24T23:13:31.797Z,100138.41
2022-12-24T23:16:03.670Z,100126.22
2022-12-24T23:18:32.233Z,100130.72
2022-12-24T23:21:05.566Z,100128.06
2022-12-24T23:23:37.124Z,100120.91
2022-12-24T23:26:07.857Z,100128.63
2022-12-24T23:28:37.939Z,100118.03
2022-12-24T23:31:07.138Z,100109.06
2022-12-24T23:33:35.901Z,100121.25
2022-12-24T23:36:04.752Z,100112.25
2022-12-24T23:38:33.182Z,100113.06
2022-12-24T23:41:05.606Z,100113.88
2022-12-24T23:43:34.966Z,100119.16
2022-12-24T23:46:04.844Z,100108.56
2022-12-24T23:48:33.347Z,100111.47
2022-12-24T23:51:07.269Z,100121.03
2022-12-24T23:53:35.751Z,100118.38
2022-12-24T23:56:05.378Z,100117.56
2022-12-24T23:58:33.789Z,100112.25
